sensor_id;sensor_type;location;lat;lon;timestamp;pressure;altitude;pressure_sealevel;temperature;humidity
42761;BME280;31672;47.638;19.026;2023-04-29T00:03:59;100051.00;;;10.30;88.06
42761;BME280;31672;47.638;19.026;2023-04-29T00:09:02;100041.72;;;10.26;87.98
42761;BME280;31672;47.638;19.026;2023-04-29T00:14:06;100042.06;;;10.23;88.23
42761;BME280;31672;47.638;19.026;2023-04-29T00:19:09;100025.25;;;10.23;88.24
42761;BME280;31672;47.638;19.026;2023-04-29T00:24:12;100028.09;;;10.21;88.35
42761;BME280;31672;47.638;19.026;2023-04-29T00:29:16;100025.75;;;10.18;88.58
42761;BME280;31672;47.638;19.026;2023-04-29T00:34:20;100029.78;;;10.14;88.70
42761;BME280;31672;47.638;19.026;2023-04-29T00:39:23;100036.75;;;10.15;88.98
42761;BME280;31672;47.638;19.026;2023-04-29T00:44:26;100033.09;;;10.08;88.96
42761;BME280;31672;47.638;19.026;2023-04-29T00:49:29;100047.34;;;10.07;89.04
42761;BME280;31672;47.638;19.026;2023-04-29T00:54:36;100037.09;;;10.04;88.93
42761;BME280;31672;47.638;19.026;2023-04-29T00:59:40;100037.75;;;10.06;88.74
42761;BME280;31672;47.638;19.026;2023-04-29T01:04:43;100038.41;;;10.08;88.70
42761;BME280;31672;47.638;19.026;2023-04-29T01:10:01;100040.91;;;10.09;88.68
42761;BME280;31672;47.638;19.026;2023-04-29T01:15:22;100047.22;;;10.08;88.85
42761;BME280;31672;47.638;19.026;2023-04-29T01:20:26;100040.41;;;10.06;89.22
42761;BME280;31672;47.638;19.026;2023-04-29T01:25:30;100027.47;;;10.03;89.46
42761;BME280;31672;47.638;19.026;2023-04-29T01:30:51;100028.47;;;10.02;89.38
42761;BME280;31672;47.638;19.026;2023-04-29T01:36:35;100024.81;;;10.03;89.49
42761;BME280;31672;47.638;19.026;2023-04-29T01:42:17;100020.66;;;10.00;89.38
42761;BME280;31672;47.638;19.026;2023-04-29T01:47:24;100018.81;;;10.01;89.83
42761;BME280;31672;47.638;19.026;2023-04-29T01:52:27;100015.19;;;10.02;90.11
42761;BME280;31672;47.638;19.026;2023-04-29T01:57:30;100017.84;;;10.02;90.07
42761;BME280;31672;47.638;19.026;2023-04-29T02:02:33;100020.34;;;10.03;90.45
42761;BME280;31672;47.638;19.026;2023-04-29T02:07:37;100016.50;;;10.06;90.60
42761;BME280;31672;47.638;19.026;2023-04-29T02:12:40;100017.19;;;10.08;90.41
42761;BME280;31672;47.638;19.026;2023-04-29T02:17:43;100024.47;;;10.06;90.50
42761;BME280;31672;47.638;19.026;2023-04-29T02:22:46;100031.44;;;10.07;90.78
42761;BME280;31672;47.638;19.026;2023-04-29T02:27:49;100014.03;;;10.04;90.66
42761;BME280;31672;47.638;19.026;2023-04-29T02:32:53;100014.53;;;10.08;90.61
42761;BME280;31672;47.638;19.026;2023-04-29T02:37:57;100011.19;;;10.06;90.35
42761;BME280;31672;47.638;19.026;2023-04-29T02:43:00;100011.38;;;10.04;89.94
42761;BME280;31672;47.638;19.026;2023-04-29T02:48:06;99999.91;;;10.04;90.06
42761;BME280;31672;47.638;19.026;2023-04-29T02:53:09;99998.09;;;10.04;89.92
42761;BME280;31672;47.638;19.026;2023-04-29T02:58:12;100012.19;;;10.05;89.47
42761;BME280;31672;47.638;19.026;2023-04-29T03:03:16;100013.38;;;10.02;89.60
42761;BME280;31672;47.638;19.026;2023-04-29T03:08:19;100007.56;;;9.99;89.69
42761;BME280;31672;47.638;19.026;2023-04-29T03:13:22;100009.38;;;9.98;89.35
42761;BME280;31672;47.638;19.026;2023-04-29T03:18:25;100003.91;;;10.00;88.91
42761;BME280;31672;47.638;19.026;2023-04-29T03:23:28;100003.91;;;10.00;88.81
42761;BME280;31672;47.638;19.026;2023-04-29T03:28:31;100008.56;;;9.98;88.45
42761;BME280;31672;47.638;19.026;2023-04-29T03:33:35;100006.72;;;9.98;88.25
42761;BME280;31672;47.638;19.026;2023-04-29T03:38:38;99995.47;;;9.96;87.93
42761;BME280;31672;47.638;19.026;2023-04-29T03:43:41;100005.91;;;9.98;88.01
42761;BME280;31672;47.638;19.026;2023-04-29T03:48:46;100014.88;;;9.97;87.85
42761;BME280;31672;47.638;19.026;2023-04-29T03:53:51;100019.34;;;9.96;88.26
42761;BME280;31672;47.638;19.026;2023-04-29T03:58:55;100032.78;;;9.95;88.05
42761;BME280;31672;47.638;19.026;2023-04-29T04:03:58;100027.81;;;9.91;87.44
42761;BME280;31672;47.638;19.026;2023-04-29T04:09:02;100032.78;;;9.95;87.19
42761;BME280;31672;47.638;19.026;2023-04-29T04:14:05;100029.97;;;9.96;87.11
42761;BME280;31672;47.638;19.026;2023-04-29T04:19:08;100028.78;;;9.99;87.00
42761;BME280;31672;47.638;19.026;2023-04-29T04:24:11;100033.59;;;9.95;86.99
42761;BME280;31672;47.638;19.026;2023-04-29T04:29:14;100026.63;;;9.94;87.29
42761;BME280;31672;47.638;19.026;2023-04-29T04:34:17;100030.28;;;9.93;87.41
42761;BME280;31672;47.638;19.026;2023-04-29T04:39:20;100032.13;;;9.92;87.29
42761;BME280;31672;47.638;19.026;2023-04-29T04:44:23;100025.81;;;9.93;87.47
42761;BME280;31672;47.638;19.026;2023-04-29T04:49:26;100035.09;;;9.98;87.97
42761;BME280;31672;47.638;19.026;2023-04-29T04:54:29;100030.44;;;10.00;88.41
42761;BME280;31672;47.638;19.026;2023-04-29T04:59:33;100019.97;;;10.06;88.66
42761;BME280;31672;47.638;19.026;2023-04-29T05:04:36;100029.09;;;10.12;88.38
42761;BME280;31672;47.638;19.026;2023-04-29T05:09:39;100029.25;;;10.18;88.54
42761;BME280;31672;47.638;19.026;2023-04-29T05:14:42;100035.41;;;10.27;88.32
42761;BME280;31672;47.638;19.026;2023-04-29T05:19:45;100027.91;;;10.31;87.62
42761;BME280;31672;47.638;19.026;2023-04-29T05:24:48;100026.59;;;10.35;87.02
42761;BME280;31672;47.638;19.026;2023-04-29T05:29:51;100020.47;;;10.34;85.65
42761;BME280;31672;47.638;19.026;2023-04-29T05:34:55;100024.59;;;10.37;84.56
42761;BME280;31672;47.638;19.026;2023-04-29T05:39:58;100031.03;;;10.42;84.05
42761;BME280;31672;47.638;19.026;2023-04-29T05:45:01;100028.06;;;10.45;83.72
42761;BME280;31672;47.638;19.026;2023-04-29T05:50:05;100035.53;;;10.50;83.44
42761;BME280;31672;47.638;19.026;2023-04-29T05:55:09;100037.50;;;10.56;83.19
42761;BME280;31672;47.638;19.026;2023-04-29T06:00:12;100040.78;;;10.58;82.80
42761;BME280;31672;47.638;19.026;2023-04-29T06:05:15;100048.13;;;10.56;81.90
42761;BME280;31672;47.638;19.026;2023-04-29T06:10:19;100054.25;;;10.57;81.53
42761;BME280;31672;47.638;19.026;2023-04-29T06:15:22;100037.31;;;10.58;80.78
42761;BME280;31672;47.638;19.026;2023-04-29T06:20:25;100045.09;;;10.59;80.62
42761;BME280;31672;47.638;19.026;2023-04-29T06:25:28;100034.31;;;10.61;80.48
42761;BME280;31672;47.638;19.026;2023-04-29T06:30:31;100033.97;;;10.64;79.92
42761;BME280;31672;47.638;19.026;2023-04-29T06:35:38;100046.56;;;10.70;79.96
42761;BME280;31672;47.638;19.026;2023-04-29T06:40:42;100050.56;;;10.74;79.63
42761;BME280;31672;47.638;19.026;2023-04-29T06:45:46;100050.50;;;10.82;79.50
42761;BME280;31672;47.638;19.026;2023-04-29T06:50:54;100045.97;;;10.91;78.84
42761;BME280;31672;47.638;19.026;2023-04-29T06:55:58;100054.56;;;11.01;78.09
42761;BME280;31672;47.638;19.026;2023-04-29T07:01:00;100053.72;;;11.01;75.63
42761;BME280;31672;47.638;19.026;2023-04-29T07:06:05;100049.56;;;11.06;75.33
42761;BME280;31672;47.638;19.026;2023-04-29T07:11:09;100054.34;;;11.11;75.45
42761;BME280;31672;47.638;19.026;2023-04-29T07:16:16;100058.28;;;11.23;74.90
42761;BME280;31672;47.638;19.026;2023-04-29T07:21:21;100056.91;;;11.27;74.72
42761;BME280;31672;47.638;19.026;2023-04-29T07:26:24;100046.25;;;11.27;73.66
42761;BME280;31672;47.638;19.026;2023-04-29T07:31:27;100054.25;;;11.27;73.52
42761;BME280;31672;47.638;19.026;2023-04-29T07:36:31;100062.41;;;11.25;71.74
42761;BME280;31672;47.638;19.026;2023-04-29T07:41:34;100059.97;;;11.16;70.43
42761;BME280;31672;47.638;19.026;2023-04-29T07:46:37;100066.97;;;11.17;70.86
42761;BME280;31672;47.638;19.026;2023-04-29T07:51:42;100059.97;;;11.16;71.06
42761;BME280;31672;47.638;19.026;2023-04-29T07:56:45;100052.06;;;11.31;72.39
42761;BME280;31672;47.638;19.026;2023-04-29T08:01:48;100060.69;;;11.33;70.94
42761;BME280;31672;47.638;19.026;2023-04-29T08:06:51;100060.81;;;11.39;71.11
42761;BME280;31672;47.638;19.026;2023-04-29T08:11:55;100055.34;;;11.41;71.82
42761;BME280;31672;47.638;19.026;2023-04-29T08:16:58;100057.53;;;11.60;72.73
42761;BME280;31672;47.638;19.026;2023-04-29T08:22:01;100066.81;;;11.87;72.27
42761;BME280;31672;47.638;19.026;2023-04-29T08:27:06;100066.34;;;12.21;72.89
42761;BME280;31672;47.638;19.026;2023-04-29T08:32:09;100077.13;;;12.57;71.65
42761;BME280;31672;47.638;19.026;2023-04-29T08:37:12;100069.50;;;12.84;68.79
42761;BME280;31672;47.638;19.026;2023-04-29T08:42:20;100065.97;;;12.98;68.85
42761;BME280;31672;47.638;19.026;2023-04-29T08:47:30;100073.03;;;13.21;67.50
42761;BME280;31672;47.638;19.026;2023-04-29T08:52:33;100078.00;;;13.24;65.05
42761;BME280;31672;47.638;19.026;2023-04-29T08:57:38;100076.22;;;13.16;63.60
42761;BME280;31672;47.638;19.026;2023-04-29T09:02:48;100079.22;;;13.21;64.43
42761;BME280;31672;47.638;19.026;2023-04-29T09:07:52;100085.44;;;13.28;63.97
42761;BME280;31672;47.638;19.026;2023-04-29T09:12:56;100080.94;;;13.29;63.54
42761;BME280;31672;47.638;19.026;2023-04-29T09:18:02;100082.47;;;13.38;63.80
42761;BME280;31672;47.638;19.026;2023-04-29T09:23:05;100074.75;;;13.28;60.15
42761;BME280;31672;47.638;19.026;2023-04-29T09:28:15;100080.28;;;13.27;61.38
42761;BME280;31672;47.638;19.026;2023-04-29T09:33:19;100075.09;;;13.40;61.55
42761;BME280;31672;47.638;19.026;2023-04-29T09:38:22;100080.00;;;13.58;61.28
42761;BME280;31672;47.638;19.026;2023-04-29T09:43:25;100073.38;;;13.54;60.52
42761;BME280;31672;47.638;19.026;2023-04-29T09:48:30;100082.47;;;13.59;59.29
42761;BME280;31672;47.638;19.026;2023-04-29T09:53:36;100074.03;;;13.77;60.98
42761;BME280;31672;47.638;19.026;2023-04-29T09:58:40;100066.22;;;13.76;57.45
42761;BME280;31672;47.638;19.026;2023-04-29T10:03:44;100069.69;;;13.76;59.14
42761;BME280;31672;47.638;19.026;2023-04-29T10:08:48;100076.63;;;13.92;59.37
42761;BME280;31672;47.638;19.026;2023-04-29T10:13:52;100064.00;;;14.07;59.04
42761;BME280;31672;47.638;19.026;2023-04-29T10:18:56;100056.06;;;14.20;58.61
42761;BME280;31672;47.638;19.026;2023-04-29T10:24:02;100053.72;;;14.39;58.18
42761;BME280;31672;47.638;19.026;2023-04-29T10:29:06;100048.28;;;14.47;57.17
42761;BME280;31672;47.638;19.026;2023-04-29T10:34:11;100042.25;;;14.73;57.34
42761;BME280;31672;47.638;19.026;2023-04-29T10:39:38;100030.47;;;15.22;56.36
42761;BME280;31672;47.638;19.026;2023-04-29T10:45:26;100020.22;;;15.52;55.48
42761;BME280;31672;47.638;19.026;2023-04-29T10:56:18;99988.16;;;15.85;50.99
42761;BME280;31672;47.638;19.026;2023-04-29T11:01:51;99989.56;;;15.94;49.81
42761;BME280;31672;47.638;19.026;2023-04-29T11:06:56;99990.22;;;15.90;48.04
42761;BME280;31672;47.638;19.026;2023-04-29T11:12:04;99979.47;;;15.96;47.82
42761;BME280;31672;47.638;19.026;2023-04-29T11:17:14;99973.94;;;15.85;44.19
42761;BME280;31672;47.638;19.026;2023-04-29T11:22:28;99974.94;;;15.97;45.66
42761;BME280;31672;47.638;19.026;2023-04-29T11:27:39;99971.97;;;16.25;43.70
42761;BME280;31672;47.638;19.026;2023-04-29T11:32:44;99973.19;;;16.36;42.21
42761;BME280;31672;47.638;19.026;2023-04-29T11:37:48;99970.63;;;16.60;43.16
42761;BME280;31672;47.638;19.026;2023-04-29T11:42:51;99961.88;;;16.92;42.61
42761;BME280;31672;47.638;19.026;2023-04-29T11:47:54;99969.00;;;17.04;40.90
42761;BME280;31672;47.638;19.026;2023-04-29T11:52:57;99960.19;;;16.91;41.01
42761;BME280;31672;47.638;19.026;2023-04-29T11:58:03;99950.50;;;16.90;41.00
42761;BME280;31672;47.638;19.026;2023-04-29T12:03:17;99951.63;;;16.75;42.01
42761;BME280;31672;47.638;19.026;2023-04-29T12:08:27;99956.53;;;16.78;42.45
42761;BME280;31672;47.638;19.026;2023-04-29T12:13:30;99962.69;;;16.92;42.09
42761;BME280;31672;47.638;19.026;2023-04-29T12:18:35;99961.97;;;17.10;41.96
42761;BME280;31672;47.638;19.026;2023-04-29T12:23:40;99955.38;;;17.06;42.01
42761;BME280;31672;47.638;19.026;2023-04-29T12:28:43;99951.47;;;17.02;42.38
42761;BME280;31672;47.638;19.026;2023-04-29T12:33:46;99943.13;;;17.17;43.17
42761;BME280;31672;47.638;19.026;2023-04-29T12:38:49;99938.81;;;17.41;41.71
42761;BME280;31672;47.638;19.026;2023-04-29T12:43:52;99930.06;;;17.52;42.58
42761;BME280;31672;47.638;19.026;2023-04-29T12:48:55;99917.53;;;17.64;42.44
42761;BME280;31672;47.638;19.026;2023-04-29T12:54:03;99916.41;;;17.53;40.95
42761;BME280;31672;47.638;19.026;2023-04-29T12:59:09;99905.09;;;17.45;41.71
42761;BME280;31672;47.638;19.026;2023-04-29T13:04:14;99903.06;;;17.65;42.63
42761;BME280;31672;47.638;19.026;2023-04-29T13:09:17;99891.66;;;17.70;41.59
42761;BME280;31672;47.638;19.026;2023-04-29T13:14:21;99888.56;;;17.91;42.31
42761;BME280;31672;47.638;19.026;2023-04-29T13:19:25;99888.22;;;18.06;41.84
42761;BME280;31672;47.638;19.026;2023-04-29T13:24:48;99881.22;;;18.35;41.64
42761;BME280;31672;47.638;19.026;2023-04-29T13:29:51;99878.72;;;18.52;41.70
42761;BME280;31672;47.638;19.026;2023-04-29T13:34:55;99873.28;;;18.40;39.64
42761;BME280;31672;47.638;19.026;2023-04-29T13:39:58;99864.78;;;18.43;39.94
42761;BME280;31672;47.638;19.026;2023-04-29T13:45:01;99860.66;;;19.01;41.61
42761;BME280;31672;47.638;19.026;2023-04-29T13:50:06;99857.22;;;19.59;39.00
42761;BME280;31672;47.638;19.026;2023-04-29T13:55:12;99854.97;;;19.91;38.95
42761;BME280;31672;47.638;19.026;2023-04-29T14:00:18;99848.44;;;19.75;38.14
42761;BME280;31672;47.638;19.026;2023-04-29T14:05:41;99843.28;;;19.85;37.27
42761;BME280;31672;47.638;19.026;2023-04-29T14:10:44;99835.97;;;19.97;37.54
42761;BME280;31672;47.638;19.026;2023-04-29T14:15:48;99838.69;;;19.86;38.26
42761;BME280;31672;47.638;19.026;2023-04-29T14:20:51;99843.16;;;19.68;38.15
42761;BME280;31672;47.638;19.026;2023-04-29T14:25:54;99850.03;;;19.29;38.55
42761;BME280;31672;47.638;19.026;2023-04-29T14:31:17;99841.00;;;19.00;40.36
42761;BME280;31672;47.638;19.026;2023-04-29T14:36:20;99829.50;;;18.63;40.42
42761;BME280;31672;47.638;19.026;2023-04-29T14:41:23;99829.66;;;18.38;41.35
42761;BME280;31672;47.638;19.026;2023-04-29T14:46:27;99830.94;;;18.05;41.72
42761;BME280;31672;47.638;19.026;2023-04-29T14:51:31;99842.03;;;17.90;43.17
42761;BME280;31672;47.638;19.026;2023-04-29T14:56:34;99857.34;;;17.90;43.12
42761;BME280;31672;47.638;19.026;2023-04-29T15:01:39;99850.69;;;17.92;43.87
42761;BME280;31672;47.638;19.026;2023-04-29T15:06:42;99847.25;;;17.85;43.52
42761;BME280;31672;47.638;19.026;2023-04-29T15:11:45;99842.50;;;17.87;43.99
42761;BME280;31672;47.638;19.026;2023-04-29T15:16:48;99839.88;;;17.81;43.66
42761;BME280;31672;47.638;19.026;2023-04-29T15:21:51;99836.16;;;17.82;43.78
42761;BME280;31672;47.638;19.026;2023-04-29T15:26:54;99843.44;;;17.75;44.53
42761;BME280;31672;47.638;19.026;2023-04-29T15:31:57;99838.72;;;17.70;45.31
42761;BME280;31672;47.638;19.026;2023-04-29T15:37:01;99838.72;;;17.70;45.44
42761;BME280;31672;47.638;19.026;2023-04-29T15:42:04;99834.84;;;17.66;45.83
42761;BME280;31672;47.638;19.026;2023-04-29T15:47:07;99821.13;;;17.74;46.41
42761;BME280;31672;47.638;19.026;2023-04-29T15:52:10;99828.59;;;17.72;45.78
42761;BME280;31672;47.638;19.026;2023-04-29T15:57:14;99834.97;;;17.53;46.60
42761;BME280;31672;47.638;19.026;2023-04-29T16:02:18;99825.09;;;17.28;46.89
42761;BME280;31672;47.638;19.026;2023-04-29T16:07:22;99822.91;;;17.19;47.36
42761;BME280;31672;47.638;19.026;2023-04-29T16:12:25;99820.91;;;17.07;47.46
42761;BME280;31672;47.638;19.026;2023-04-29T16:17:30;99821.44;;;16.98;47.62
42761;BME280;31672;47.638;19.026;2023-04-29T16:22:33;99826.47;;;16.88;47.99
42761;BME280;31672;47.638;19.026;2023-04-29T16:27:36;99815.81;;;16.74;48.61
42761;BME280;31672;47.638;19.026;2023-04-29T16:32:39;99824.91;;;16.73;48.98
42761;BME280;31672;47.638;19.026;2023-04-29T16:37:45;99827.38;;;16.68;49.51
42761;BME280;31672;47.638;19.026;2023-04-29T16:42:48;99831.81;;;16.56;50.43
42761;BME280;31672;47.638;19.026;2023-04-29T16:47:52;99822.31;;;16.53;50.52
42761;BME280;31672;47.638;19.026;2023-04-29T16:52:56;99818.22;;;16.51;50.54
42761;BME280;31672;47.638;19.026;2023-04-29T16:57:59;99816.06;;;16.59;51.20
42761;BME280;31672;47.638;19.026;2023-04-29T17:03:03;99822.44;;;16.65;51.04
42761;BME280;31672;47.638;19.026;2023-04-29T17:08:06;99833.81;;;16.60;50.90
42761;BME280;31672;47.638;19.026;2023-04-29T17:13:09;99849.78;;;16.49;51.55
42761;BME280;31672;47.638;19.026;2023-04-29T17:18:12;99844.94;;;16.32;52.18
42761;BME280;31672;47.638;19.026;2023-04-29T17:23:15;99852.84;;;16.14;52.63
42761;BME280;31672;47.638;19.026;2023-04-29T17:28:18;99854.97;;;15.92;53.00
42761;BME280;31672;47.638;19.026;2023-04-29T17:33:22;99851.34;;;15.67;54.13
42761;BME280;31672;47.638;19.026;2023-04-29T17:38:24;99857.50;;;15.41;54.92
42761;BME280;31672;47.638;19.026;2023-04-29T17:43:28;99853.22;;;15.13;55.59
42761;BME280;31672;47.638;19.026;2023-04-29T17:48:34;99851.53;;;14.86;57.27
42761;BME280;31672;47.638;19.026;2023-04-29T17:53:37;99858.06;;;14.57;58.25
42761;BME280;31672;47.638;19.026;2023-04-29T17:58:40;99870.88;;;14.27;59.51
42761;BME280;31672;47.638;19.026;2023-04-29T18:03:44;99864.78;;;13.91;59.76
42761;BME280;31672;47.638;19.026;2023-04-29T18:08:48;99884.13;;;13.65;60.80
42761;BME280;31672;47.638;19.026;2023-04-29T18:13:52;99885.59;;;13.40;61.83
42761;BME280;31672;47.638;19.026;2023-04-29T18:18:56;99886.53;;;13.26;62.75
42761;BME280;31672;47.638;19.026;2023-04-29T18:23:59;99894.75;;;13.09;63.48
42761;BME280;31672;47.638;19.026;2023-04-29T18:29:02;99907.72;;;12.91;63.92
42761;BME280;31672;47.638;19.026;2023-04-29T18:34:06;99901.78;;;12.74;64.32
42761;BME280;31672;47.638;19.026;2023-04-29T18:39:09;99912.50;;;12.59;64.64
42761;BME280;31672;47.638;19.026;2023-04-29T18:44:13;99920.63;;;12.37;65.68
42761;BME280;31672;47.638;19.026;2023-04-29T18:49:16;99924.94;;;12.23;66.26
42761;BME280;31672;47.638;19.026;2023-04-29T18:54:19;99929.91;;;12.11;66.65
42761;BME280;31672;47.638;19.026;2023-04-29T18:59:23;99930.03;;;12.03;67.52
42761;BME280;31672;47.638;19.026;2023-04-29T19:04:26;99932.94;;;11.93;67.97
42761;BME280;31672;47.638;19.026;2023-04-29T19:09:29;99938.38;;;11.85;68.55
42761;BME280;31672;47.638;19.026;2023-04-29T19:14:33;99943.09;;;11.75;69.02
42761;BME280;31672;47.638;19.026;2023-04-29T19:19:36;99941.16;;;11.69;69.84
42761;BME280;31672;47.638;19.026;2023-04-29T19:24:40;99951.81;;;11.69;69.98
42761;BME280;31672;47.638;19.026;2023-04-29T19:29:43;99934.47;;;11.73;69.62
42761;BME280;31672;47.638;19.026;2023-04-29T19:34:47;99945.59;;;11.76;70.37
42761;BME280;31672;47.638;19.026;2023-04-29T19:39:50;99948.88;;;11.78;71.21
42761;BME280;31672;47.638;19.026;2023-04-29T19:44:54;99951.69;;;11.85;71.24
42761;BME280;31672;47.638;19.026;2023-04-29T19:49:58;99944.50;;;11.86;71.06
42761;BME280;31672;47.638;19.026;2023-04-29T19:55:01;99952.31;;;11.87;71.75
42761;BME280;31672;47.638;19.026;2023-04-29T20:00:05;99950.84;;;11.85;72.03
42761;BME280;31672;47.638;19.026;2023-04-29T20:05:11;99943.69;;;11.85;71.45
42761;BME280;31672;47.638;19.026;2023-04-29T20:10:15;99948.56;;;11.82;70.97
42761;BME280;31672;47.638;19.026;2023-04-29T20:15:18;99949.72;;;11.79;71.25
42761;BME280;31672;47.638;19.026;2023-04-29T20:20:22;99941.91;;;11.77;71.39
42761;BME280;31672;47.638;19.026;2023-04-29T20:25:26;99948.31;;;11.68;71.49
42761;BME280;31672;47.638;19.026;2023-04-29T20:30:30;99953.09;;;11.58;72.09
42761;BME280;31672;47.638;19.026;2023-04-29T20:35:33;99955.81;;;11.50;72.10
42761;BME280;31672;47.638;19.026;2023-04-29T20:40:36;99965.69;;;11.41;71.95
42761;BME280;31672;47.638;19.026;2023-04-29T20:45:39;99959.59;;;11.33;71.66
42761;BME280;31672;47.638;19.026;2023-04-29T20:50:43;99961.31;;;11.25;71.43
42761;BME280;31672;47.638;19.026;2023-04-29T20:55:45;99969.69;;;11.22;71.84
42761;BME280;31672;47.638;19.026;2023-04-29T21:00:48;99967.53;;;11.18;72.44
42761;BME280;31672;47.638;19.026;2023-04-29T21:05:53;99968.56;;;11.17;72.37
42761;BME280;31672;47.638;19.026;2023-04-29T21:10:57;99979.50;;;11.22;72.89
42761;BME280;31672;47.638;19.026;2023-04-29T21:16:00;99972.16;;;11.24;72.51
42761;BME280;31672;47.638;19.026;2023-04-29T21:21:03;99979.59;;;11.29;72.86
42761;BME280;31672;47.638;19.026;2023-04-29T21:26:06;99977.78;;;11.29;73.61
42761;BME280;31672;47.638;19.026;2023-04-29T21:31:09;99981.25;;;11.30;73.21
42761;BME280;31672;47.638;19.026;2023-04-29T21:36:18;99980.44;;;11.29;73.97
42761;BME280;31672;47.638;19.026;2023-04-29T21:41:27;99983.38;;;11.34;74.30
42761;BME280;31672;47.638;19.026;2023-04-29T21:46:31;99974.03;;;11.38;73.93
42761;BME280;31672;47.638;19.026;2023-04-29T21:51:35;99993.31;;;11.40;73.96
42761;BME280;31672;47.638;19.026;2023-04-29T21:56:38;99997.63;;;11.41;74.57
42761;BME280;31672;47.638;19.026;2023-04-29T22:01:40;100000.59;;;11.46;74.88
42761;BME280;31672;47.638;19.026;2023-04-29T22:06:47;99984.25;;;11.49;74.84
42761;BME280;31672;47.638;19.026;2023-04-29T22:11:50;99984.34;;;11.56;74.48
42761;BME280;31672;47.638;19.026;2023-04-29T22:16:53;99989.53;;;11.58;74.81
42761;BME280;31672;47.638;19.026;2023-04-29T22:21:56;99977.03;;;11.58;74.85
42761;BME280;31672;47.638;19.026;2023-04-29T22:27:00;99975.38;;;11.57;74.64
42761;BME280;31672;47.638;19.026;2023-04-29T22:32:04;99980.22;;;11.53;74.76
42761;BME280;31672;47.638;19.026;2023-04-29T22:37:07;99973.91;;;11.55;74.93
42761;BME280;31672;47.638;19.026;2023-04-29T22:42:10;99983.81;;;11.61;74.55
42761;BME280;31672;47.638;19.026;2023-04-29T22:47:13;99989.78;;;11.63;74.80
42761;BME280;31672;47.638;19.026;2023-04-29T22:52:16;99979.63;;;11.66;74.95
42761;BME280;31672;47.638;19.026;2023-04-29T22:57:19;99979.25;;;11.69;74.44
42761;BME280;31672;47.638;19.026;2023-04-29T23:02:24;99979.53;;;11.74;74.24
42761;BME280;31672;47.638;19.026;2023-04-29T23:07:31;99977.34;;;11.78;74.15
42761;BME280;31672;47.638;19.026;2023-04-29T23:12:34;99988.63;;;11.80;74.32
42761;BME280;31672;47.638;19.026;2023-04-29T23:17:37;99985.34;;;11.78;74.21
42761;BME280;31672;47.638;19.026;2023-04-29T23:22:41;99976.72;;;11.76;74.59
42761;BME280;31672;47.638;19.026;2023-04-29T23:27:44;99972.56;;;11.73;74.29
42761;BME280;31672;47.638;19.026;2023-04-29T23:32:47;99963.56;;;11.74;74.15
42761;BME280;31672;47.638;19.026;2023-04-29T23:37:50;99966.88;;;11.76;74.28
42761;BME280;31672;47.638;19.026;2023-04-29T23:42:53;99968.59;;;11.69;74.15
42761;BME280;31672;47.638;19.026;2023-04-29T23:47:56;99967.22;;;11.59;74.11
42761;BME280;31672;47.638;19.026;2023-04-29T23:53:00;99970.66;;;11.44;74.44
42761;BME280;31672;47.638;19.026;2023-04-29T23:58:02;99967.75;;;11.31;74.92
